Del Norte, Colorado
Current Conditions -  °F | °C
As of 8:50 PM on Thursday 18 Dec 2014 (Local Time) from KRCV Reporting Station
Clear Clear  
Wind Chill: 17°   Ceiling: Unl
Heat Index: 17°   Visibility: 10mi
Dew Point: 14°   Wind: 3mph
Humidity: 88%   Direction: 250°WSW
Pressure: 30.12"   Gusts: NA
Location:  37.68°N, 106.35°W
Report Text: KRCV 190350Z AUTO 25003KT 10SM CLR M08/M10 A3012 RMK AO2 T10831099
Loading
Personal Weather Stations






























Interactive Weather Map New forecast layout! Learn more

10-Day Weather Forecast

Advertisements
Track Severe Weather on mobile